sensor_id;sensor_type;location;lat;lon;timestamp;P1;durP1;ratioP1;P2;durP2;ratioP2
2860;SDS011;1438;50.922;6.704;2023-03-01T00:01:58;9.55;;;7.28;;
2860;SDS011;1438;50.922;6.704;2023-03-01T00:04:24;9.90;;;7.10;;
2860;SDS011;1438;50.922;6.704;2023-03-01T00:06:50;12.75;;;7.90;;
2860;SDS011;1438;50.922;6.704;2023-03-01T00:09:16;17.60;;;7.67;;
2860;SDS011;1438;50.922;6.704;2023-03-01T00:11:42;9.75;;;6.80;;
2860;SDS011;1438;50.922;6.704;2023-03-01T00:14:08;8.93;;;6.57;;
2860;SDS011;1438;50.922;6.704;2023-03-01T00:16:35;11.07;;;7.38;;
2860;SDS011;1438;50.922;6.704;2023-03-01T00:19:03;10.90;;;7.47;;
2860;SDS011;1438;50.922;6.704;2023-03-01T00:21:29;9.40;;;7.30;;
2860;SDS011;1438;50.922;6.704;2023-03-01T00:23:55;11.95;;;7.28;;
2860;SDS011;1438;50.922;6.704;2023-03-01T00:26:22;10.80;;;8.05;;
2860;SDS011;1438;50.922;6.704;2023-03-01T00:28:48;8.25;;;7.38;;
2860;SDS011;1438;50.922;6.704;2023-03-01T00:31:15;11.82;;;6.85;;
2860;SDS011;1438;50.922;6.704;2023-03-01T00:33:42;12.30;;;8.07;;
2860;SDS011;1438;50.922;6.704;2023-03-01T00:36:08;10.75;;;7.55;;
2860;SDS011;1438;50.922;6.704;2023-03-01T00:38:38;11.30;;;7.90;;
2860;SDS011;1438;50.922;6.704;2023-03-01T00:41:07;10.95;;;7.53;;
2860;SDS011;1438;50.922;6.704;2023-03-01T00:43:33;8.68;;;6.85;;
2860;SDS011;1438;50.922;6.704;2023-03-01T00:46:03;11.43;;;7.80;;
2860;SDS011;1438;50.922;6.704;2023-03-01T00:48:29;9.23;;;7.07;;
2860;SDS011;1438;50.922;6.704;2023-03-01T00:50:55;19.05;;;8.40;;
2860;SDS011;1438;50.922;6.704;2023-03-01T00:53:21;11.77;;;7.57;;
2860;SDS011;1438;50.922;6.704;2023-03-01T00:55:47;11.68;;;7.00;;
2860;SDS011;1438;50.922;6.704;2023-03-01T00:58:13;13.75;;;7.97;;
2860;SDS011;1438;50.922;6.704;2023-03-01T01:00:39;11.88;;;8.85;;
2860;SDS011;1438;50.922;6.704;2023-03-01T01:03:05;10.70;;;6.43;;
2860;SDS011;1438;50.922;6.704;2023-03-01T01:05:34;13.32;;;8.57;;
2860;SDS011;1438;50.922;6.704;2023-03-01T01:08:00;10.93;;;7.38;;
2860;SDS011;1438;50.922;6.704;2023-03-01T01:10:26;9.50;;;7.33;;
2860;SDS011;1438;50.922;6.704;2023-03-01T01:12:52;9.75;;;6.82;;
2860;SDS011;1438;50.922;6.704;2023-03-01T01:15:18;8.50;;;5.73;;
2860;SDS011;1438;50.922;6.704;2023-03-01T01:17:43;10.70;;;7.30;;
2860;SDS011;1438;50.922;6.704;2023-03-01T01:20:10;9.23;;;6.50;;
2860;SDS011;1438;50.922;6.704;2023-03-01T01:22:36;8.93;;;6.35;;
2860;SDS011;1438;50.922;6.704;2023-03-01T01:25:02;9.77;;;7.73;;
2860;SDS011;1438;50.922;6.704;2023-03-01T01:27:29;9.07;;;6.80;;
2860;SDS011;1438;50.922;6.704;2023-03-01T01:29:55;10.10;;;6.35;;
2860;SDS011;1438;50.922;6.704;2023-03-01T01:32:21;10.82;;;7.30;;
2860;SDS011;1438;50.922;6.704;2023-03-01T01:34:47;9.73;;;6.70;;
2860;SDS011;1438;50.922;6.704;2023-03-01T01:37:13;9.57;;;6.82;;
2860;SDS011;1438;50.922;6.704;2023-03-01T01:39:39;10.45;;;6.28;;
2860;SDS011;1438;50.922;6.704;2023-03-01T01:42:04;9.50;;;6.53;;
2860;SDS011;1438;50.922;6.704;2023-03-01T01:44:33;10.93;;;6.87;;
2860;SDS011;1438;50.922;6.704;2023-03-01T01:47:06;10.55;;;6.50;;
2860;SDS011;1438;50.922;6.704;2023-03-01T01:50:08;12.55;;;7.53;;
2860;SDS011;1438;50.922;6.704;2023-03-01T01:52:27;9.32;;;7.05;;
2860;SDS011;1438;50.922;6.704;2023-03-01T01:57:22;12.50;;;7.10;;
2860;SDS011;1438;50.922;6.704;2023-03-01T01:59:51;10.10;;;6.93;;
2860;SDS011;1438;50.922;6.704;2023-03-01T02:02:18;8.65;;;7.13;;
2860;SDS011;1438;50.922;6.704;2023-03-01T02:04:44;11.38;;;6.88;;
2860;SDS011;1438;50.922;6.704;2023-03-01T02:09:38;12.27;;;7.87;;
2860;SDS011;1438;50.922;6.704;2023-03-01T02:12:04;7.80;;;5.40;;
2860;SDS011;1438;50.922;6.704;2023-03-01T02:14:30;13.95;;;6.28;;
2860;SDS011;1438;50.922;6.704;2023-03-01T02:16:56;10.95;;;7.53;;
2860;SDS011;1438;50.922;6.704;2023-03-01T02:19:31;10.25;;;8.02;;
2860;SDS011;1438;50.922;6.704;2023-03-01T02:22:03;9.07;;;6.72;;
2860;SDS011;1438;50.922;6.704;2023-03-01T02:24:34;8.85;;;6.70;;
2860;SDS011;1438;50.922;6.704;2023-03-01T02:27:02;11.20;;;6.65;;
2860;SDS011;1438;50.922;6.704;2023-03-01T02:29:28;9.40;;;6.45;;
2860;SDS011;1438;50.922;6.704;2023-03-01T02:31:54;20.92;;;7.60;;
2860;SDS011;1438;50.922;6.704;2023-03-01T02:34:22;9.98;;;7.20;;
2860;SDS011;1438;50.922;6.704;2023-03-01T02:39:33;11.45;;;7.60;;
2860;SDS011;1438;50.922;6.704;2023-03-01T02:42:00;10.55;;;8.80;;
2860;SDS011;1438;50.922;6.704;2023-03-01T02:44:28;9.95;;;6.90;;
2860;SDS011;1438;50.922;6.704;2023-03-01T02:46:55;8.65;;;6.30;;
2860;SDS011;1438;50.922;6.704;2023-03-01T02:49:25;12.52;;;8.18;;
2860;SDS011;1438;50.922;6.704;2023-03-01T02:56:54;14.18;;;7.30;;
2860;SDS011;1438;50.922;6.704;2023-03-01T02:59:21;12.07;;;8.05;;
2860;SDS011;1438;50.922;6.704;2023-03-01T03:01:48;11.77;;;8.15;;
2860;SDS011;1438;50.922;6.704;2023-03-01T03:04:15;10.02;;;7.55;;
2860;SDS011;1438;50.922;6.704;2023-03-01T03:06:43;11.70;;;8.00;;
2860;SDS011;1438;50.922;6.704;2023-03-01T03:09:09;13.32;;;7.95;;
2860;SDS011;1438;50.922;6.704;2023-03-01T03:11:36;10.93;;;6.90;;
2860;SDS011;1438;50.922;6.704;2023-03-01T03:14:04;10.93;;;8.13;;
2860;SDS011;1438;50.922;6.704;2023-03-01T03:16:30;12.80;;;7.30;;
2860;SDS011;1438;50.922;6.704;2023-03-01T03:18:56;10.25;;;7.60;;
2860;SDS011;1438;50.922;6.704;2023-03-01T03:21:29;9.68;;;7.53;;
2860;SDS011;1438;50.922;6.704;2023-03-01T03:23:55;9.57;;;7.38;;
2860;SDS011;1438;50.922;6.704;2023-03-01T03:26:22;9.50;;;7.80;;
2860;SDS011;1438;50.922;6.704;2023-03-01T03:28:48;12.25;;;7.40;;
2860;SDS011;1438;50.922;6.704;2023-03-01T03:31:14;12.93;;;8.25;;
2860;SDS011;1438;50.922;6.704;2023-03-01T03:33:40;9.25;;;8.05;;
2860;SDS011;1438;50.922;6.704;2023-03-01T03:36:06;10.65;;;8.07;;
2860;SDS011;1438;50.922;6.704;2023-03-01T03:38:37;11.18;;;7.22;;
2860;SDS011;1438;50.922;6.704;2023-03-01T03:41:04;11.00;;;7.97;;
2860;SDS011;1438;50.922;6.704;2023-03-01T03:43:32;15.00;;;7.85;;
2860;SDS011;1438;50.922;6.704;2023-03-01T03:45:59;8.95;;;7.10;;
2860;SDS011;1438;50.922;6.704;2023-03-01T03:48:25;12.18;;;8.02;;
2860;SDS011;1438;50.922;6.704;2023-03-01T03:50:53;11.48;;;8.15;;
2860;SDS011;1438;50.922;6.704;2023-03-01T03:53:19;11.88;;;7.70;;
2860;SDS011;1438;50.922;6.704;2023-03-01T03:55:46;10.57;;;8.10;;
2860;SDS011;1438;50.922;6.704;2023-03-01T03:58:14;11.13;;;8.18;;
2860;SDS011;1438;50.922;6.704;2023-03-01T04:00:42;16.50;;;8.82;;
2860;SDS011;1438;50.922;6.704;2023-03-01T04:03:09;13.15;;;8.30;;
2860;SDS011;1438;50.922;6.704;2023-03-01T04:05:35;11.82;;;8.75;;
2860;SDS011;1438;50.922;6.704;2023-03-01T04:08:01;11.70;;;8.15;;
2860;SDS011;1438;50.922;6.704;2023-03-01T04:10:28;14.15;;;9.20;;
2860;SDS011;1438;50.922;6.704;2023-03-01T04:12:54;12.15;;;8.13;;
2860;SDS011;1438;50.922;6.704;2023-03-01T04:15:21;13.75;;;8.30;;
2860;SDS011;1438;50.922;6.704;2023-03-01T04:17:49;14.38;;;8.77;;
2860;SDS011;1438;50.922;6.704;2023-03-01T04:20:17;15.05;;;8.77;;
2860;SDS011;1438;50.922;6.704;2023-03-01T04:22:49;15.60;;;9.55;;
2860;SDS011;1438;50.922;6.704;2023-03-01T04:25:15;16.90;;;8.23;;
2860;SDS011;1438;50.922;6.704;2023-03-01T04:27:41;13.07;;;8.65;;
2860;SDS011;1438;50.922;6.704;2023-03-01T04:30:07;13.00;;;8.70;;
2860;SDS011;1438;50.922;6.704;2023-03-01T04:32:33;13.48;;;8.43;;
2860;SDS011;1438;50.922;6.704;2023-03-01T04:35:00;14.05;;;8.00;;
2860;SDS011;1438;50.922;6.704;2023-03-01T04:37:26;13.10;;;9.63;;
2860;SDS011;1438;50.922;6.704;2023-03-01T04:39:52;14.50;;;9.00;;
2860;SDS011;1438;50.922;6.704;2023-03-01T04:42:18;14.35;;;9.18;;
2860;SDS011;1438;50.922;6.704;2023-03-01T04:44:45;12.05;;;9.15;;
2860;SDS011;1438;50.922;6.704;2023-03-01T04:47:11;14.88;;;8.77;;
2860;SDS011;1438;50.922;6.704;2023-03-01T04:49:37;13.80;;;9.30;;
2860;SDS011;1438;50.922;6.704;2023-03-01T04:52:04;12.27;;;9.55;;
2860;SDS011;1438;50.922;6.704;2023-03-01T04:54:31;17.27;;;9.30;;
2860;SDS011;1438;50.922;6.704;2023-03-01T04:56:57;13.45;;;9.43;;
2860;SDS011;1438;50.922;6.704;2023-03-01T04:59:24;15.50;;;9.18;;
2860;SDS011;1438;50.922;6.704;2023-03-01T05:01:50;13.55;;;8.45;;
2860;SDS011;1438;50.922;6.704;2023-03-01T05:04:17;14.85;;;10.02;;
2860;SDS011;1438;50.922;6.704;2023-03-01T05:06:43;15.57;;;9.15;;
2860;SDS011;1438;50.922;6.704;2023-03-01T05:09:09;15.35;;;9.85;;
2860;SDS011;1438;50.922;6.704;2023-03-01T05:11:36;13.20;;;8.95;;
2860;SDS011;1438;50.922;6.704;2023-03-01T05:14:02;11.90;;;9.05;;
2860;SDS011;1438;50.922;6.704;2023-03-01T05:16:28;18.83;;;10.07;;
2860;SDS011;1438;50.922;6.704;2023-03-01T05:18:56;11.13;;;7.60;;
2860;SDS011;1438;50.922;6.704;2023-03-01T05:21:22;15.43;;;9.70;;
2860;SDS011;1438;50.922;6.704;2023-03-01T05:23:48;13.70;;;9.95;;
2860;SDS011;1438;50.922;6.704;2023-03-01T05:26:14;15.70;;;10.10;;
2860;SDS011;1438;50.922;6.704;2023-03-01T05:28:42;15.27;;;10.00;;
2860;SDS011;1438;50.922;6.704;2023-03-01T05:31:08;17.83;;;10.00;;
2860;SDS011;1438;50.922;6.704;2023-03-01T05:33:37;13.70;;;9.93;;
2860;SDS011;1438;50.922;6.704;2023-03-01T05:36:04;14.20;;;9.25;;
2860;SDS011;1438;50.922;6.704;2023-03-01T05:38:30;15.05;;;9.50;;
2860;SDS011;1438;50.922;6.704;2023-03-01T05:40:56;13.20;;;9.60;;
2860;SDS011;1438;50.922;6.704;2023-03-01T05:43:22;15.30;;;10.70;;
2860;SDS011;1438;50.922;6.704;2023-03-01T05:45:48;16.15;;;10.13;;
2860;SDS011;1438;50.922;6.704;2023-03-01T05:48:14;17.60;;;10.17;;
2860;SDS011;1438;50.922;6.704;2023-03-01T05:50:41;15.43;;;9.77;;
2860;SDS011;1438;50.922;6.704;2023-03-01T05:55:37;14.30;;;9.50;;
2860;SDS011;1438;50.922;6.704;2023-03-01T05:58:04;16.73;;;10.95;;
2860;SDS011;1438;50.922;6.704;2023-03-01T06:00:31;14.63;;;10.60;;
2860;SDS011;1438;50.922;6.704;2023-03-01T06:02:57;14.10;;;9.18;;
2860;SDS011;1438;50.922;6.704;2023-03-01T06:05:24;16.55;;;10.10;;
2860;SDS011;1438;50.922;6.704;2023-03-01T06:07:50;15.88;;;9.60;;
2860;SDS011;1438;50.922;6.704;2023-03-01T06:10:17;14.52;;;9.95;;
2860;SDS011;1438;50.922;6.704;2023-03-01T06:12:43;19.35;;;9.35;;
2860;SDS011;1438;50.922;6.704;2023-03-01T06:15:10;14.05;;;9.82;;
2860;SDS011;1438;50.922;6.704;2023-03-01T06:17:37;16.02;;;10.23;;
2860;SDS011;1438;50.922;6.704;2023-03-01T06:20:04;16.00;;;9.52;;
2860;SDS011;1438;50.922;6.704;2023-03-01T06:22:31;19.08;;;11.48;;
2860;SDS011;1438;50.922;6.704;2023-03-01T06:24:57;19.08;;;11.20;;
2860;SDS011;1438;50.922;6.704;2023-03-01T06:27:23;18.55;;;9.93;;
2860;SDS011;1438;50.922;6.704;2023-03-01T06:29:49;16.17;;;10.63;;
2860;SDS011;1438;50.922;6.704;2023-03-01T06:32:15;14.43;;;10.43;;
2860;SDS011;1438;50.922;6.704;2023-03-01T06:34:41;19.23;;;11.23;;
2860;SDS011;1438;50.922;6.704;2023-03-01T06:37:07;20.70;;;12.90;;
2860;SDS011;1438;50.922;6.704;2023-03-01T06:39:33;16.25;;;10.15;;
2860;SDS011;1438;50.922;6.704;2023-03-01T06:41:59;15.50;;;11.77;;
2860;SDS011;1438;50.922;6.704;2023-03-01T06:44:26;18.25;;;11.48;;
2860;SDS011;1438;50.922;6.704;2023-03-01T06:46:52;22.48;;;11.05;;
2860;SDS011;1438;50.922;6.704;2023-03-01T06:49:18;14.75;;;10.68;;
2860;SDS011;1438;50.922;6.704;2023-03-01T06:51:45;15.48;;;10.32;;
2860;SDS011;1438;50.922;6.704;2023-03-01T06:54:11;18.48;;;11.40;;
2860;SDS011;1438;50.922;6.704;2023-03-01T06:56:37;15.40;;;8.82;;
2860;SDS011;1438;50.922;6.704;2023-03-01T06:59:03;14.68;;;9.65;;
2860;SDS011;1438;50.922;6.704;2023-03-01T07:01:29;18.73;;;11.38;;
2860;SDS011;1438;50.922;6.704;2023-03-01T07:03:56;15.75;;;11.55;;
2860;SDS011;1438;50.922;6.704;2023-03-01T07:06:22;17.38;;;9.77;;
2860;SDS011;1438;50.922;6.704;2023-03-01T07:08:48;14.43;;;10.82;;
2860;SDS011;1438;50.922;6.704;2023-03-01T07:11:14;16.60;;;11.27;;
2860;SDS011;1438;50.922;6.704;2023-03-01T07:13:40;21.02;;;11.18;;
2860;SDS011;1438;50.922;6.704;2023-03-01T07:16:07;21.52;;;12.10;;
2860;SDS011;1438;50.922;6.704;2023-03-01T07:18:33;15.85;;;11.40;;
2860;SDS011;1438;50.922;6.704;2023-03-01T07:21:03;24.27;;;12.60;;
2860;SDS011;1438;50.922;6.704;2023-03-01T07:23:29;16.42;;;11.20;;
2860;SDS011;1438;50.922;6.704;2023-03-01T07:25:55;17.85;;;11.48;;
2860;SDS011;1438;50.922;6.704;2023-03-01T07:28:24;18.83;;;11.00;;
2860;SDS011;1438;50.922;6.704;2023-03-01T07:30:50;17.52;;;11.55;;
2860;SDS011;1438;50.922;6.704;2023-03-01T07:33:16;15.93;;;11.10;;
2860;SDS011;1438;50.922;6.704;2023-03-01T07:35:43;19.95;;;11.00;;
2860;SDS011;1438;50.922;6.704;2023-03-01T07:38:09;17.70;;;10.60;;
2860;SDS011;1438;50.922;6.704;2023-03-01T07:40:35;17.60;;;11.07;;
2860;SDS011;1438;50.922;6.704;2023-03-01T07:43:01;14.70;;;9.25;;
2860;SDS011;1438;50.922;6.704;2023-03-01T07:45:27;20.55;;;12.07;;
2860;SDS011;1438;50.922;6.704;2023-03-01T07:47:54;16.35;;;11.63;;
2860;SDS011;1438;50.922;6.704;2023-03-01T07:50:20;17.42;;;11.32;;
2860;SDS011;1438;50.922;6.704;2023-03-01T07:52:46;19.05;;;11.15;;
2860;SDS011;1438;50.922;6.704;2023-03-01T07:55:13;20.95;;;12.15;;
2860;SDS011;1438;50.922;6.704;2023-03-01T07:57:39;16.55;;;10.65;;
2860;SDS011;1438;50.922;6.704;2023-03-01T08:00:05;15.63;;;11.27;;
2860;SDS011;1438;50.922;6.704;2023-03-01T08:02:31;14.60;;;10.50;;
2860;SDS011;1438;50.922;6.704;2023-03-01T08:04:57;16.35;;;11.63;;
2860;SDS011;1438;50.922;6.704;2023-03-01T08:07:23;18.13;;;11.77;;
2860;SDS011;1438;50.922;6.704;2023-03-01T08:09:49;16.77;;;11.20;;
2860;SDS011;1438;50.922;6.704;2023-03-01T08:12:15;17.95;;;10.60;;
2860;SDS011;1438;50.922;6.704;2023-03-01T08:14:41;18.45;;;11.40;;
2860;SDS011;1438;50.922;6.704;2023-03-01T08:17:07;14.15;;;10.35;;
2860;SDS011;1438;50.922;6.704;2023-03-01T08:19:33;16.85;;;10.73;;
2860;SDS011;1438;50.922;6.704;2023-03-01T08:22:01;15.07;;;10.43;;
2860;SDS011;1438;50.922;6.704;2023-03-01T08:24:27;16.73;;;9.77;;
2860;SDS011;1438;50.922;6.704;2023-03-01T08:26:53;17.75;;;10.57;;
2860;SDS011;1438;50.922;6.704;2023-03-01T08:29:19;17.05;;;9.90;;
2860;SDS011;1438;50.922;6.704;2023-03-01T08:31:45;19.58;;;11.73;;
2860;SDS011;1438;50.922;6.704;2023-03-01T08:34:12;20.48;;;11.35;;
2860;SDS011;1438;50.922;6.704;2023-03-01T08:36:39;20.42;;;12.38;;
2860;SDS011;1438;50.922;6.704;2023-03-01T08:39:06;14.32;;;10.10;;
2860;SDS011;1438;50.922;6.704;2023-03-01T08:41:33;18.98;;;10.77;;
2860;SDS011;1438;50.922;6.704;2023-03-01T08:43:59;16.17;;;11.23;;
2860;SDS011;1438;50.922;6.704;2023-03-01T08:46:28;14.88;;;10.50;;
2860;SDS011;1438;50.922;6.704;2023-03-01T08:48:55;19.42;;;11.25;;
2860;SDS011;1438;50.922;6.704;2023-03-01T08:51:21;19.05;;;11.20;;
2860;SDS011;1438;50.922;6.704;2023-03-01T08:53:47;18.23;;;10.55;;
2860;SDS011;1438;50.922;6.704;2023-03-01T08:56:14;18.48;;;11.23;;
2860;SDS011;1438;50.922;6.704;2023-03-01T08:58:43;14.52;;;10.02;;
2860;SDS011;1438;50.922;6.704;2023-03-01T09:01:09;16.65;;;11.57;;
2860;SDS011;1438;50.922;6.704;2023-03-01T09:03:35;12.77;;;10.77;;
2860;SDS011;1438;50.922;6.704;2023-03-01T09:06:02;17.38;;;12.07;;
2860;SDS011;1438;50.922;6.704;2023-03-01T09:08:28;15.85;;;11.15;;
2860;SDS011;1438;50.922;6.704;2023-03-01T09:10:55;17.52;;;11.32;;
2860;SDS011;1438;50.922;6.704;2023-03-01T09:13:21;14.13;;;11.32;;
2860;SDS011;1438;50.922;6.704;2023-03-01T09:15:49;18.10;;;11.60;;
2860;SDS011;1438;50.922;6.704;2023-03-01T09:18:16;16.50;;;11.80;;
2860;SDS011;1438;50.922;6.704;2023-03-01T09:20:42;20.90;;;12.50;;
2860;SDS011;1438;50.922;6.704;2023-03-01T09:23:08;18.63;;;11.57;;
2860;SDS011;1438;50.922;6.704;2023-03-01T09:25:34;22.30;;;10.70;;
2860;SDS011;1438;50.922;6.704;2023-03-01T09:28:00;20.48;;;12.38;;
2860;SDS011;1438;50.922;6.704;2023-03-01T09:30:26;15.88;;;12.50;;
2860;SDS011;1438;50.922;6.704;2023-03-01T09:32:52;15.50;;;11.27;;
2860;SDS011;1438;50.922;6.704;2023-03-01T09:35:18;13.40;;;9.97;;
2860;SDS011;1438;50.922;6.704;2023-03-01T09:37:45;18.30;;;10.13;;
2860;SDS011;1438;50.922;6.704;2023-03-01T09:40:20;15.68;;;11.00;;
2860;SDS011;1438;50.922;6.704;2023-03-01T09:43:01;16.70;;;10.50;;
2860;SDS011;1438;50.922;6.704;2023-03-01T09:45:35;13.35;;;10.48;;
2860;SDS011;1438;50.922;6.704;2023-03-01T09:48:05;19.45;;;10.90;;
2860;SDS011;1438;50.922;6.704;2023-03-01T09:50:33;13.70;;;9.18;;
2860;SDS011;1438;50.922;6.704;2023-03-01T09:53:02;16.23;;;9.20;;
2860;SDS011;1438;50.922;6.704;2023-03-01T09:55:37;13.57;;;10.55;;
2860;SDS011;1438;50.922;6.704;2023-03-01T09:58:11;11.93;;;10.32;;
2860;SDS011;1438;50.922;6.704;2023-03-01T10:00:43;16.52;;;10.13;;
2860;SDS011;1438;50.922;6.704;2023-03-01T10:06:15;16.52;;;10.02;;
2860;SDS011;1438;50.922;6.704;2023-03-01T10:08:43;16.92;;;11.48;;
2860;SDS011;1438;50.922;6.704;2023-03-01T10:11:23;13.70;;;10.97;;
2860;SDS011;1438;50.922;6.704;2023-03-01T10:16:33;11.63;;;9.30;;
2860;SDS011;1438;50.922;6.704;2023-03-01T10:19:00;15.33;;;10.63;;
2860;SDS011;1438;50.922;6.704;2023-03-01T10:21:27;14.33;;;9.37;;
2860;SDS011;1438;50.922;6.704;2023-03-01T10:23:56;9.50;;;8.37;;
2860;SDS011;1438;50.922;6.704;2023-03-01T10:26:29;10.83;;;8.17;;
2860;SDS011;1438;50.922;6.704;2023-03-01T10:31:26;10.83;;;8.00;;
2860;SDS011;1438;50.922;6.704;2023-03-01T10:33:54;10.60;;;9.03;;
2860;SDS011;1438;50.922;6.704;2023-03-01T10:36:22;12.70;;;9.07;;
2860;SDS011;1438;50.922;6.704;2023-03-01T10:38:49;10.20;;;8.00;;
2860;SDS011;1438;50.922;6.704;2023-03-01T10:41:17;10.50;;;8.20;;
2860;SDS011;1438;50.922;6.704;2023-03-01T10:43:47;13.20;;;9.00;;
2860;SDS011;1438;50.922;6.704;2023-03-01T10:49:12;10.20;;;7.97;;
2860;SDS011;1438;50.922;6.704;2023-03-01T10:51:40;12.83;;;8.27;;
2860;SDS011;1438;50.922;6.704;2023-03-01T10:54:13;9.53;;;7.50;;
2860;SDS011;1438;50.922;6.704;2023-03-01T10:56:51;11.07;;;8.13;;
2860;SDS011;1438;50.922;6.704;2023-03-01T10:59:24;10.37;;;8.60;;
2860;SDS011;1438;50.922;6.704;2023-03-01T11:02:02;9.57;;;8.57;;
2860;SDS011;1438;50.922;6.704;2023-03-01T11:04:29;12.13;;;8.70;;
2860;SDS011;1438;50.922;6.704;2023-03-01T11:06:58;9.70;;;8.00;;
2860;SDS011;1438;50.922;6.704;2023-03-01T11:09:25;10.40;;;8.50;;
2860;SDS011;1438;50.922;6.704;2023-03-01T11:11:57;15.17;;;8.73;;
2860;SDS011;1438;50.922;6.704;2023-03-01T11:14:26;10.30;;;8.37;;
2860;SDS011;1438;50.922;6.704;2023-03-01T11:17:03;13.20;;;8.77;;
2860;SDS011;1438;50.922;6.704;2023-03-01T11:19:30;9.37;;;8.43;;
2860;SDS011;1438;50.922;6.704;2023-03-01T11:22:02;10.63;;;8.63;;
2860;SDS011;1438;50.922;6.704;2023-03-01T11:24:34;13.77;;;9.23;;
2860;SDS011;1438;50.922;6.704;2023-03-01T11:27:02;12.90;;;9.50;;
2860;SDS011;1438;50.922;6.704;2023-03-01T11:29:35;16.33;;;9.37;;
2860;SDS011;1438;50.922;6.704;2023-03-01T11:32:04;11.53;;;8.87;;
2860;SDS011;1438;50.922;6.704;2023-03-01T11:34:37;13.03;;;8.73;;
2860;SDS011;1438;50.922;6.704;2023-03-01T11:37:08;10.70;;;9.03;;
2860;SDS011;1438;50.922;6.704;2023-03-01T11:42:25;13.97;;;8.90;;
2860;SDS011;1438;50.922;6.704;2023-03-01T11:44:54;10.97;;;8.70;;
2860;SDS011;1438;50.922;6.704;2023-03-01T11:47:27;10.97;;;8.90;;
2860;SDS011;1438;50.922;6.704;2023-03-01T11:50:16;12.40;;;9.47;;
2860;SDS011;1438;50.922;6.704;2023-03-01T11:57:54;11.20;;;9.70;;
2860;SDS011;1438;50.922;6.704;2023-03-01T12:03:09;9.80;;;8.80;;
2860;SDS011;1438;50.922;6.704;2023-03-01T12:28:47;11.20;;;8.77;;
2860;SDS011;1438;50.922;6.704;2023-03-01T12:39:21;11.63;;;7.70;;
2860;SDS011;1438;50.922;6.704;2023-03-01T12:41:59;10.80;;;8.70;;
2860;SDS011;1438;50.922;6.704;2023-03-01T12:49:31;10.33;;;7.20;;
2860;SDS011;1438;50.922;6.704;2023-03-01T12:52:00;11.00;;;7.90;;
2860;SDS011;1438;50.922;6.704;2023-03-01T12:54:31;10.60;;;7.77;;
2860;SDS011;1438;50.922;6.704;2023-03-01T12:56:58;10.47;;;8.50;;
2860;SDS011;1438;50.922;6.704;2023-03-01T12:59:37;9.70;;;7.77;;
2860;SDS011;1438;50.922;6.704;2023-03-01T13:13:00;8.53;;;7.27;;
2860;SDS011;1438;50.922;6.704;2023-03-01T13:15:36;12.73;;;8.17;;
2860;SDS011;1438;50.922;6.704;2023-03-01T13:18:27;11.13;;;8.50;;
2860;SDS011;1438;50.922;6.704;2023-03-01T13:20:56;9.00;;;8.10;;
2860;SDS011;1438;50.922;6.704;2023-03-01T13:23:30;9.43;;;8.43;;
2860;SDS011;1438;50.922;6.704;2023-03-01T13:31:02;12.03;;;9.57;;
2860;SDS011;1438;50.922;6.704;2023-03-01T13:35:55;11.10;;;9.43;;
2860;SDS011;1438;50.922;6.704;2023-03-01T13:41:03;14.77;;;10.37;;
2860;SDS011;1438;50.922;6.704;2023-03-01T13:43:33;10.63;;;9.53;;
2860;SDS011;1438;50.922;6.704;2023-03-01T13:46:00;11.00;;;8.53;;
2860;SDS011;1438;50.922;6.704;2023-03-01T13:48:28;11.47;;;9.43;;
2860;SDS011;1438;50.922;6.704;2023-03-01T13:50:58;10.03;;;8.40;;
2860;SDS011;1438;50.922;6.704;2023-03-01T13:53:26;11.43;;;10.13;;
2860;SDS011;1438;50.922;6.704;2023-03-01T13:56:15;13.17;;;10.13;;
2860;SDS011;1438;50.922;6.704;2023-03-01T14:03:47;17.13;;;9.77;;
2860;SDS011;1438;50.922;6.704;2023-03-01T14:06:14;10.03;;;8.80;;
2860;SDS011;1438;50.922;6.704;2023-03-01T14:08:46;12.67;;;9.73;;
2860;SDS011;1438;50.922;6.704;2023-03-01T14:14:04;10.43;;;8.57;;
2860;SDS011;1438;50.922;6.704;2023-03-01T14:19:19;11.30;;;8.20;;
2860;SDS011;1438;50.922;6.704;2023-03-01T14:21:58;11.80;;;8.93;;
2860;SDS011;1438;50.922;6.704;2023-03-01T14:24:25;9.53;;;7.93;;
2860;SDS011;1438;50.922;6.704;2023-03-01T14:26:52;8.70;;;7.80;;
2860;SDS011;1438;50.922;6.704;2023-03-01T14:29:33;9.73;;;8.60;;
2860;SDS011;1438;50.922;6.704;2023-03-01T14:32:17;9.03;;;7.53;;
2860;SDS011;1438;50.922;6.704;2023-03-01T14:34:45;9.13;;;7.83;;
2860;SDS011;1438;50.922;6.704;2023-03-01T14:37:17;9.70;;;8.33;;
2860;SDS011;1438;50.922;6.704;2023-03-01T14:39:44;8.33;;;7.50;;
2860;SDS011;1438;50.922;6.704;2023-03-01T14:42:11;11.10;;;7.50;;
2860;SDS011;1438;50.922;6.704;2023-03-01T14:44:37;9.30;;;7.90;;
2860;SDS011;1438;50.922;6.704;2023-03-01T14:47:03;7.90;;;6.50;;
2860;SDS011;1438;50.922;6.704;2023-03-01T14:49:30;11.90;;;6.67;;
2860;SDS011;1438;50.922;6.704;2023-03-01T14:52:00;8.40;;;7.17;;
2860;SDS011;1438;50.922;6.704;2023-03-01T14:54:28;10.37;;;7.93;;
2860;SDS011;1438;50.922;6.704;2023-03-01T14:56:58;11.47;;;8.33;;
2860;SDS011;1438;50.922;6.704;2023-03-01T14:59:25;9.70;;;8.20;;
2860;SDS011;1438;50.922;6.704;2023-03-01T15:01:51;9.77;;;8.20;;
2860;SDS011;1438;50.922;6.704;2023-03-01T15:04:19;12.80;;;7.37;;
2860;SDS011;1438;50.922;6.704;2023-03-01T15:06:45;12.40;;;7.27;;
2860;SDS011;1438;50.922;6.704;2023-03-01T15:09:13;12.97;;;7.63;;
2860;SDS011;1438;50.922;6.704;2023-03-01T15:11:40;9.53;;;7.80;;
2860;SDS011;1438;50.922;6.704;2023-03-01T15:16:54;10.53;;;6.90;;
2860;SDS011;1438;50.922;6.704;2023-03-01T15:19:20;10.20;;;7.50;;
2860;SDS011;1438;50.922;6.704;2023-03-01T15:21:48;7.73;;;6.93;;
2860;SDS011;1438;50.922;6.704;2023-03-01T15:27:01;12.13;;;7.20;;
2860;SDS011;1438;50.922;6.704;2023-03-01T15:29:31;9.90;;;7.77;;
2860;SDS011;1438;50.922;6.704;2023-03-01T15:36:51;7.93;;;6.70;;
2860;SDS011;1438;50.922;6.704;2023-03-01T15:39:30;8.30;;;6.80;;
2860;SDS011;1438;50.922;6.704;2023-03-01T15:41:56;11.27;;;7.50;;
2860;SDS011;1438;50.922;6.704;2023-03-01T15:44:30;10.63;;;7.73;;
2860;SDS011;1438;50.922;6.704;2023-03-01T15:46:56;11.47;;;8.30;;
2860;SDS011;1438;50.922;6.704;2023-03-01T15:49:27;13.40;;;7.60;;
2860;SDS011;1438;50.922;6.704;2023-03-01T15:51:57;8.40;;;7.30;;
2860;SDS011;1438;50.922;6.704;2023-03-01T15:54:23;9.10;;;6.60;;
2860;SDS011;1438;50.922;6.704;2023-03-01T15:56:50;11.70;;;7.70;;
2860;SDS011;1438;50.922;6.704;2023-03-01T15:59:16;11.33;;;7.20;;
2860;SDS011;1438;50.922;6.704;2023-03-01T16:01:43;10.53;;;7.50;;
2860;SDS011;1438;50.922;6.704;2023-03-01T16:04:10;9.53;;;6.93;;
2860;SDS011;1438;50.922;6.704;2023-03-01T16:06:45;9.43;;;7.33;;
2860;SDS011;1438;50.922;6.704;2023-03-01T16:09:18;8.87;;;7.20;;
2860;SDS011;1438;50.922;6.704;2023-03-01T16:11:44;9.43;;;7.20;;
2860;SDS011;1438;50.922;6.704;2023-03-01T16:14:10;8.50;;;6.80;;
2860;SDS011;1438;50.922;6.704;2023-03-01T16:16:36;7.37;;;6.40;;
2860;SDS011;1438;50.922;6.704;2023-03-01T16:19:02;8.50;;;7.00;;
2860;SDS011;1438;50.922;6.704;2023-03-01T16:21:28;11.43;;;6.93;;
2860;SDS011;1438;50.922;6.704;2023-03-01T16:23:54;9.13;;;7.87;;
2860;SDS011;1438;50.922;6.704;2023-03-01T16:26:20;7.10;;;6.17;;
2860;SDS011;1438;50.922;6.704;2023-03-01T16:28:46;11.68;;;8.55;;
2860;SDS011;1438;50.922;6.704;2023-03-01T16:31:13;11.57;;;7.23;;
2860;SDS011;1438;50.922;6.704;2023-03-01T16:33:42;8.15;;;6.20;;
2860;SDS011;1438;50.922;6.704;2023-03-01T16:36:14;8.50;;;6.38;;
2860;SDS011;1438;50.922;6.704;2023-03-01T16:38:40;10.30;;;6.00;;
2860;SDS011;1438;50.922;6.704;2023-03-01T16:41:06;10.10;;;6.03;;
2860;SDS011;1438;50.922;6.704;2023-03-01T16:43:36;8.30;;;6.28;;
2860;SDS011;1438;50.922;6.704;2023-03-01T16:46:09;8.63;;;5.93;;
2860;SDS011;1438;50.922;6.704;2023-03-01T16:48:35;9.20;;;6.50;;
2860;SDS011;1438;50.922;6.704;2023-03-01T16:51:01;10.90;;;6.85;;
2860;SDS011;1438;50.922;6.704;2023-03-01T16:53:28;6.90;;;6.05;;
2860;SDS011;1438;50.922;6.704;2023-03-01T16:55:57;6.82;;;5.57;;
2860;SDS011;1438;50.922;6.704;2023-03-01T16:58:24;10.65;;;6.63;;
2860;SDS011;1438;50.922;6.704;2023-03-01T17:00:51;8.60;;;6.15;;